sensor_id;sensor_type;location;lat;lon;timestamp;P1;durP1;ratioP1;P2;durP2;ratioP2
36441;SDS011;22470;50.824;16.284;2022-08-18T00:01:17;22.48;;;13.13;;
36441;SDS011;22470;50.824;16.284;2022-08-18T00:03:44;22.58;;;12.98;;
36441;SDS011;22470;50.824;16.284;2022-08-18T00:06:26;21.38;;;13.23;;
36441;SDS011;22470;50.824;16.284;2022-08-18T00:08:56;20.80;;;12.50;;
36441;SDS011;22470;50.824;16.284;2022-08-18T00:11:25;25.05;;;13.60;;
36441;SDS011;22470;50.824;16.284;2022-08-18T00:14:07;20.73;;;13.30;;
36441;SDS011;22470;50.824;16.284;2022-08-18T00:16:48;21.02;;;12.50;;
36441;SDS011;22470;50.824;16.284;2022-08-18T00:19:17;20.55;;;12.80;;
36441;SDS011;22470;50.824;16.284;2022-08-18T00:21:45;21.63;;;13.15;;
36441;SDS011;22470;50.824;16.284;2022-08-18T00:24:12;21.60;;;13.63;;
36441;SDS011;22470;50.824;16.284;2022-08-18T00:26:39;23.52;;;13.70;;
36441;SDS011;22470;50.824;16.284;2022-08-18T00:29:12;23.67;;;13.95;;
36441;SDS011;22470;50.824;16.284;2022-08-18T00:31:39;22.60;;;14.05;;
36441;SDS011;22470;50.824;16.284;2022-08-18T00:34:06;22.70;;;13.65;;
36441;SDS011;22470;50.824;16.284;2022-08-18T00:36:33;23.42;;;14.63;;
36441;SDS011;22470;50.824;16.284;2022-08-18T00:39:00;20.60;;;13.60;;
36441;SDS011;22470;50.824;16.284;2022-08-18T00:41:29;19.95;;;13.10;;
36441;SDS011;22470;50.824;16.284;2022-08-18T00:43:56;26.85;;;14.38;;
36441;SDS011;22470;50.824;16.284;2022-08-18T00:46:28;22.63;;;13.07;;
36441;SDS011;22470;50.824;16.284;2022-08-18T00:48:56;22.20;;;13.52;;
36441;SDS011;22470;50.824;16.284;2022-08-18T00:54:02;25.48;;;13.75;;
36441;SDS011;22470;50.824;16.284;2022-08-18T00:56:42;21.13;;;13.52;;
36441;SDS011;22470;50.824;16.284;2022-08-18T00:59:36;19.80;;;13.60;;
36441;SDS011;22470;50.824;16.284;2022-08-18T01:02:18;22.48;;;13.60;;
36441;SDS011;22470;50.824;16.284;2022-08-18T01:04:52;22.98;;;13.70;;
36441;SDS011;22470;50.824;16.284;2022-08-18T01:07:29;23.15;;;14.52;;
36441;SDS011;22470;50.824;16.284;2022-08-18T01:10:03;22.35;;;13.40;;
36441;SDS011;22470;50.824;16.284;2022-08-18T01:12:31;24.65;;;14.50;;
36441;SDS011;22470;50.824;16.284;2022-08-18T01:15:11;24.80;;;14.38;;
36441;SDS011;22470;50.824;16.284;2022-08-18T01:17:56;24.80;;;14.57;;
36441;SDS011;22470;50.824;16.284;2022-08-18T01:20:31;26.60;;;15.68;;
36441;SDS011;22470;50.824;16.284;2022-08-18T01:23:02;26.05;;;14.93;;
36441;SDS011;22470;50.824;16.284;2022-08-18T01:25:38;24.75;;;14.70;;
36441;SDS011;22470;50.824;16.284;2022-08-18T01:28:06;21.88;;;15.35;;
36441;SDS011;22470;50.824;16.284;2022-08-18T01:30:43;25.98;;;15.32;;
36441;SDS011;22470;50.824;16.284;2022-08-18T01:33:12;24.33;;;14.93;;
36441;SDS011;22470;50.824;16.284;2022-08-18T01:35:42;27.45;;;15.82;;
36441;SDS011;22470;50.824;16.284;2022-08-18T01:38:12;24.98;;;15.10;;
36441;SDS011;22470;50.824;16.284;2022-08-18T01:40:41;28.50;;;16.35;;
36441;SDS011;22470;50.824;16.284;2022-08-18T01:43:28;22.67;;;15.18;;
36441;SDS011;22470;50.824;16.284;2022-08-18T01:45:55;25.17;;;14.65;;
36441;SDS011;22470;50.824;16.284;2022-08-18T01:48:22;23.83;;;15.68;;
36441;SDS011;22470;50.824;16.284;2022-08-18T01:50:49;22.17;;;15.18;;
36441;SDS011;22470;50.824;16.284;2022-08-18T01:53:16;26.50;;;14.60;;
36441;SDS011;22470;50.824;16.284;2022-08-18T01:55:43;23.92;;;14.88;;
36441;SDS011;22470;50.824;16.284;2022-08-18T01:58:11;23.55;;;14.85;;
36441;SDS011;22470;50.824;16.284;2022-08-18T02:00:38;22.95;;;14.77;;
36441;SDS011;22470;50.824;16.284;2022-08-18T02:03:06;24.88;;;15.20;;
36441;SDS011;22470;50.824;16.284;2022-08-18T02:05:44;24.48;;;15.63;;
36441;SDS011;22470;50.824;16.284;2022-08-18T02:08:15;25.55;;;15.23;;
36441;SDS011;22470;50.824;16.284;2022-08-18T02:10:42;26.88;;;15.27;;
36441;SDS011;22470;50.824;16.284;2022-08-18T02:13:09;23.52;;;14.02;;
36441;SDS011;22470;50.824;16.284;2022-08-18T02:15:36;24.33;;;13.93;;
36441;SDS011;22470;50.824;16.284;2022-08-18T02:18:14;24.83;;;14.00;;
36441;SDS011;22470;50.824;16.284;2022-08-18T02:21:10;24.50;;;14.05;;
36441;SDS011;22470;50.824;16.284;2022-08-18T02:23:44;24.27;;;14.38;;
36441;SDS011;22470;50.824;16.284;2022-08-18T02:26:19;22.58;;;14.35;;
36441;SDS011;22470;50.824;16.284;2022-08-18T02:28:47;23.70;;;14.88;;
36441;SDS011;22470;50.824;16.284;2022-08-18T02:31:16;22.55;;;14.32;;
36441;SDS011;22470;50.824;16.284;2022-08-18T02:33:46;27.15;;;15.77;;
36441;SDS011;22470;50.824;16.284;2022-08-18T02:36:18;26.10;;;14.48;;
36441;SDS011;22470;50.824;16.284;2022-08-18T02:38:49;23.77;;;14.25;;
36441;SDS011;22470;50.824;16.284;2022-08-18T02:41:25;31.23;;;15.07;;
36441;SDS011;22470;50.824;16.284;2022-08-18T02:43:56;26.17;;;15.35;;
36441;SDS011;22470;50.824;16.284;2022-08-18T02:46:23;26.17;;;15.02;;
36441;SDS011;22470;50.824;16.284;2022-08-18T02:48:55;26.67;;;15.53;;
36441;SDS011;22470;50.824;16.284;2022-08-18T02:51:23;28.23;;;14.85;;
36441;SDS011;22470;50.824;16.284;2022-08-18T02:53:51;28.50;;;15.02;;
36441;SDS011;22470;50.824;16.284;2022-08-18T02:56:23;27.90;;;15.57;;
36441;SDS011;22470;50.824;16.284;2022-08-18T02:59:07;27.17;;;15.43;;
36441;SDS011;22470;50.824;16.284;2022-08-18T03:01:43;23.80;;;15.52;;
36441;SDS011;22470;50.824;16.284;2022-08-18T03:04:13;27.77;;;17.35;;
36441;SDS011;22470;50.824;16.284;2022-08-18T03:06:42;23.25;;;15.68;;
36441;SDS011;22470;50.824;16.284;2022-08-18T03:09:11;28.92;;;17.02;;
36441;SDS011;22470;50.824;16.284;2022-08-18T03:11:40;25.65;;;17.73;;
36441;SDS011;22470;50.824;16.284;2022-08-18T03:14:09;24.65;;;17.10;;
36441;SDS011;22470;50.824;16.284;2022-08-18T03:16:38;27.48;;;17.13;;
36441;SDS011;22470;50.824;16.284;2022-08-18T03:19:30;27.38;;;17.45;;
36441;SDS011;22470;50.824;16.284;2022-08-18T03:22:00;27.92;;;17.25;;
36441;SDS011;22470;50.824;16.284;2022-08-18T03:24:29;26.80;;;18.10;;
36441;SDS011;22470;50.824;16.284;2022-08-18T03:26:58;27.50;;;17.23;;
36441;SDS011;22470;50.824;16.284;2022-08-18T03:29:26;29.30;;;16.83;;
36441;SDS011;22470;50.824;16.284;2022-08-18T03:31:59;29.90;;;17.53;;
36441;SDS011;22470;50.824;16.284;2022-08-18T03:34:27;26.90;;;15.00;;
36441;SDS011;22470;50.824;16.284;2022-08-18T03:36:55;24.98;;;15.88;;
36441;SDS011;22470;50.824;16.284;2022-08-18T03:39:22;27.38;;;15.90;;
36441;SDS011;22470;50.824;16.284;2022-08-18T03:41:50;28.08;;;15.00;;
36441;SDS011;22470;50.824;16.284;2022-08-18T03:44:33;25.50;;;15.35;;
36441;SDS011;22470;50.824;16.284;2022-08-18T03:47:01;29.23;;;15.80;;
36441;SDS011;22470;50.824;16.284;2022-08-18T03:49:30;26.50;;;17.15;;
36441;SDS011;22470;50.824;16.284;2022-08-18T03:51:58;24.15;;;15.07;;
36441;SDS011;22470;50.824;16.284;2022-08-18T03:54:25;24.25;;;15.77;;
36441;SDS011;22470;50.824;16.284;2022-08-18T03:56:52;25.65;;;14.98;;
36441;SDS011;22470;50.824;16.284;2022-08-18T03:59:21;24.55;;;15.65;;
36441;SDS011;22470;50.824;16.284;2022-08-18T04:01:50;21.77;;;14.52;;
36441;SDS011;22470;50.824;16.284;2022-08-18T04:04:21;26.38;;;15.23;;
36441;SDS011;22470;50.824;16.284;2022-08-18T04:06:54;23.35;;;15.07;;
36441;SDS011;22470;50.824;16.284;2022-08-18T04:09:24;24.90;;;16.08;;
36441;SDS011;22470;50.824;16.284;2022-08-18T04:11:54;21.92;;;14.95;;
36441;SDS011;22470;50.824;16.284;2022-08-18T04:14:23;25.27;;;14.95;;
36441;SDS011;22470;50.824;16.284;2022-08-18T04:16:52;23.27;;;14.68;;
36441;SDS011;22470;50.824;16.284;2022-08-18T04:19:20;25.30;;;15.45;;
36441;SDS011;22470;50.824;16.284;2022-08-18T04:21:53;24.65;;;15.15;;
36441;SDS011;22470;50.824;16.284;2022-08-18T04:24:24;24.10;;;15.43;;
36441;SDS011;22470;50.824;16.284;2022-08-18T04:26:54;27.15;;;15.63;;
36441;SDS011;22470;50.824;16.284;2022-08-18T04:29:22;25.98;;;15.88;;
36441;SDS011;22470;50.824;16.284;2022-08-18T04:31:51;23.15;;;14.68;;
36441;SDS011;22470;50.824;16.284;2022-08-18T04:34:18;26.38;;;14.93;;
36441;SDS011;22470;50.824;16.284;2022-08-18T04:36:47;27.75;;;16.42;;
36441;SDS011;22470;50.824;16.284;2022-08-18T04:39:16;34.20;;;16.52;;
36441;SDS011;22470;50.824;16.284;2022-08-18T04:41:43;32.83;;;16.38;;
36441;SDS011;22470;50.824;16.284;2022-08-18T04:44:10;23.08;;;15.95;;
36441;SDS011;22470;50.824;16.284;2022-08-18T04:46:42;24.73;;;14.77;;
36441;SDS011;22470;50.824;16.284;2022-08-18T04:49:12;24.25;;;15.82;;
36441;SDS011;22470;50.824;16.284;2022-08-18T04:51:41;28.65;;;15.73;;
36441;SDS011;22470;50.824;16.284;2022-08-18T04:54:31;25.58;;;15.77;;
36441;SDS011;22470;50.824;16.284;2022-08-18T04:56:59;27.40;;;15.95;;
36441;SDS011;22470;50.824;16.284;2022-08-18T04:59:33;23.75;;;15.65;;
36441;SDS011;22470;50.824;16.284;2022-08-18T05:02:00;26.02;;;16.67;;
36441;SDS011;22470;50.824;16.284;2022-08-18T05:04:28;29.35;;;17.17;;
36441;SDS011;22470;50.824;16.284;2022-08-18T05:06:55;37.00;;;20.10;;
36441;SDS011;22470;50.824;16.284;2022-08-18T05:09:22;29.77;;;19.98;;
36441;SDS011;22470;50.824;16.284;2022-08-18T05:11:49;32.55;;;20.42;;
36441;SDS011;22470;50.824;16.284;2022-08-18T05:14:17;32.13;;;20.67;;
36441;SDS011;22470;50.824;16.284;2022-08-18T05:16:44;32.08;;;18.00;;
36441;SDS011;22470;50.824;16.284;2022-08-18T05:19:16;29.58;;;17.98;;
36441;SDS011;22470;50.824;16.284;2022-08-18T05:21:44;32.20;;;18.33;;
36441;SDS011;22470;50.824;16.284;2022-08-18T05:24:16;30.33;;;17.40;;
36441;SDS011;22470;50.824;16.284;2022-08-18T05:26:45;26.15;;;16.30;;
36441;SDS011;22470;50.824;16.284;2022-08-18T05:29:12;26.20;;;15.13;;
36441;SDS011;22470;50.824;16.284;2022-08-18T05:31:45;22.92;;;14.52;;
36441;SDS011;22470;50.824;16.284;2022-08-18T05:34:14;20.70;;;13.73;;
36441;SDS011;22470;50.824;16.284;2022-08-18T05:41:44;24.77;;;15.05;;
36441;SDS011;22470;50.824;16.284;2022-08-18T05:44:28;25.48;;;13.95;;
36441;SDS011;22470;50.824;16.284;2022-08-18T05:46:58;23.13;;;12.90;;
36441;SDS011;22470;50.824;16.284;2022-08-18T05:49:36;22.02;;;12.35;;
36441;SDS011;22470;50.824;16.284;2022-08-18T05:52:27;27.88;;;15.52;;
36441;SDS011;22470;50.824;16.284;2022-08-18T05:54:59;29.60;;;17.30;;
36441;SDS011;22470;50.824;16.284;2022-08-18T05:57:30;27.58;;;15.80;;
36441;SDS011;22470;50.824;16.284;2022-08-18T06:00:03;26.50;;;16.40;;
36441;SDS011;22470;50.824;16.284;2022-08-18T06:02:46;25.02;;;14.45;;
36441;SDS011;22470;50.824;16.284;2022-08-18T06:05:28;30.45;;;16.25;;
36441;SDS011;22470;50.824;16.284;2022-08-18T06:08:01;28.80;;;15.88;;
36441;SDS011;22470;50.824;16.284;2022-08-18T06:10:32;26.08;;;16.40;;
36441;SDS011;22470;50.824;16.284;2022-08-18T06:13:01;26.23;;;14.77;;
36441;SDS011;22470;50.824;16.284;2022-08-18T06:23:50;26.40;;;15.90;;
36441;SDS011;22470;50.824;16.284;2022-08-18T06:35:44;23.88;;;13.48;;
36441;SDS011;22470;50.824;16.284;2022-08-18T06:38:42;20.17;;;11.13;;
36441;SDS011;22470;50.824;16.284;2022-08-18T06:44:13;18.63;;;11.52;;
36441;SDS011;22470;50.824;16.284;2022-08-18T06:50:07;23.50;;;12.70;;
36441;SDS011;22470;50.824;16.284;2022-08-18T06:52:52;18.55;;;10.57;;
36441;SDS011;22470;50.824;16.284;2022-08-18T06:55:33;21.27;;;10.15;;
36441;SDS011;22470;50.824;16.284;2022-08-18T06:58:02;15.52;;;9.45;;
36441;SDS011;22470;50.824;16.284;2022-08-18T07:00:33;16.77;;;9.38;;
36441;SDS011;22470;50.824;16.284;2022-08-18T07:03:13;13.40;;;9.15;;
36441;SDS011;22470;50.824;16.284;2022-08-18T07:08:38;13.38;;;8.55;;
36441;SDS011;22470;50.824;16.284;2022-08-18T07:13:38;19.30;;;9.95;;
36441;SDS011;22470;50.824;16.284;2022-08-18T07:16:14;19.55;;;11.50;;
36441;SDS011;22470;50.824;16.284;2022-08-18T07:21:34;19.33;;;9.70;;
36441;SDS011;22470;50.824;16.284;2022-08-18T07:24:05;25.42;;;10.23;;
36441;SDS011;22470;50.824;16.284;2022-08-18T07:27:01;20.80;;;9.43;;
36441;SDS011;22470;50.824;16.284;2022-08-18T07:29:36;16.45;;;10.25;;
36441;SDS011;22470;50.824;16.284;2022-08-18T07:32:10;18.35;;;9.55;;
36441;SDS011;22470;50.824;16.284;2022-08-18T07:34:48;19.00;;;9.35;;
36441;SDS011;22470;50.824;16.284;2022-08-18T07:37:23;17.85;;;9.77;;
36441;SDS011;22470;50.824;16.284;2022-08-18T07:45:46;14.05;;;8.93;;
36441;SDS011;22470;50.824;16.284;2022-08-18T07:48:14;16.95;;;9.30;;
36441;SDS011;22470;50.824;16.284;2022-08-18T08:03:46;14.98;;;8.60;;
36441;SDS011;22470;50.824;16.284;2022-08-18T08:06:59;14.07;;;8.75;;
36441;SDS011;22470;50.824;16.284;2022-08-18T08:10:09;16.10;;;8.45;;
36441;SDS011;22470;50.824;16.284;2022-08-18T08:15:40;16.13;;;8.10;;
36441;SDS011;22470;50.824;16.284;2022-08-18T08:18:15;18.02;;;8.07;;
36441;SDS011;22470;50.824;16.284;2022-08-18T08:21:00;22.08;;;9.55;;
36441;SDS011;22470;50.824;16.284;2022-08-18T08:23:47;16.42;;;8.93;;
36441;SDS011;22470;50.824;16.284;2022-08-18T08:31:58;16.13;;;8.77;;
36441;SDS011;22470;50.824;16.284;2022-08-18T08:34:38;23.08;;;9.15;;
36441;SDS011;22470;50.824;16.284;2022-08-18T08:40:37;19.55;;;9.27;;
36441;SDS011;22470;50.824;16.284;2022-08-18T08:43:15;15.52;;;8.80;;
36441;SDS011;22470;50.824;16.284;2022-08-18T08:48:42;20.33;;;9.82;;
36441;SDS011;22470;50.824;16.284;2022-08-18T08:51:34;19.27;;;9.73;;
36441;SDS011;22470;50.824;16.284;2022-08-18T08:54:29;15.05;;;9.68;;
36441;SDS011;22470;50.824;16.284;2022-08-18T08:57:10;17.02;;;8.15;;
36441;SDS011;22470;50.824;16.284;2022-08-18T08:59:39;16.15;;;9.00;;
36441;SDS011;22470;50.824;16.284;2022-08-18T09:05:17;22.65;;;10.43;;
36441;SDS011;22470;50.824;16.284;2022-08-18T09:10:27;18.70;;;9.55;;
36441;SDS011;22470;50.824;16.284;2022-08-18T09:21:58;14.60;;;8.88;;
36441;SDS011;22470;50.824;16.284;2022-08-18T09:24:44;14.80;;;8.45;;
36441;SDS011;22470;50.824;16.284;2022-08-18T09:29:59;13.48;;;8.52;;
36441;SDS011;22470;50.824;16.284;2022-08-18T09:32:35;12.02;;;7.72;;
36441;SDS011;22470;50.824;16.284;2022-08-18T09:40:34;13.05;;;7.07;;
36441;SDS011;22470;50.824;16.284;2022-08-18T09:43:28;11.38;;;7.97;;
36441;SDS011;22470;50.824;16.284;2022-08-18T09:45:58;12.25;;;7.75;;
36441;SDS011;22470;50.824;16.284;2022-08-18T09:48:36;11.35;;;7.85;;
36441;SDS011;22470;50.824;16.284;2022-08-18T09:51:33;12.38;;;8.07;;
36441;SDS011;22470;50.824;16.284;2022-08-18T09:54:07;12.70;;;7.80;;
36441;SDS011;22470;50.824;16.284;2022-08-18T10:02:04;11.88;;;9.13;;
36441;SDS011;22470;50.824;16.284;2022-08-18T10:08:27;14.13;;;7.78;;
36441;SDS011;22470;50.824;16.284;2022-08-18T10:10:54;11.82;;;8.07;;
36441;SDS011;22470;50.824;16.284;2022-08-18T10:19:52;10.52;;;7.47;;
36441;SDS011;22470;50.824;16.284;2022-08-18T10:22:52;19.02;;;8.77;;
36441;SDS011;22470;50.824;16.284;2022-08-18T10:25:31;16.60;;;8.95;;
36441;SDS011;22470;50.824;16.284;2022-08-18T10:28:10;12.82;;;7.57;;
36441;SDS011;22470;50.824;16.284;2022-08-18T10:31:17;17.00;;;9.57;;
36441;SDS011;22470;50.824;16.284;2022-08-18T10:34:08;13.80;;;8.23;;
36441;SDS011;22470;50.824;16.284;2022-08-18T10:39:22;13.10;;;7.60;;
36441;SDS011;22470;50.824;16.284;2022-08-18T10:44:44;13.00;;;7.80;;
36441;SDS011;22470;50.824;16.284;2022-08-18T10:47:25;17.52;;;8.40;;
36441;SDS011;22470;50.824;16.284;2022-08-18T10:50:00;14.45;;;8.20;;
36441;SDS011;22470;50.824;16.284;2022-08-18T11:01:08;14.35;;;8.13;;
36441;SDS011;22470;50.824;16.284;2022-08-18T11:09:09;14.82;;;8.30;;
36441;SDS011;22470;50.824;16.284;2022-08-18T11:11:38;12.57;;;8.00;;
36441;SDS011;22470;50.824;16.284;2022-08-18T11:20:11;12.98;;;7.85;;
36441;SDS011;22470;50.824;16.284;2022-08-18T11:22:53;15.85;;;9.85;;
36441;SDS011;22470;50.824;16.284;2022-08-18T11:25:28;14.82;;;9.43;;
36441;SDS011;22470;50.824;16.284;2022-08-18T11:27:57;14.73;;;8.52;;
36441;SDS011;22470;50.824;16.284;2022-08-18T11:30:28;17.90;;;8.60;;
36441;SDS011;22470;50.824;16.284;2022-08-18T11:33:01;11.55;;;8.75;;
36441;SDS011;22470;50.824;16.284;2022-08-18T11:35:31;15.30;;;10.00;;
36441;SDS011;22470;50.824;16.284;2022-08-18T11:38:02;13.98;;;9.00;;
36441;SDS011;22470;50.824;16.284;2022-08-18T11:40:32;12.45;;;9.32;;
36441;SDS011;22470;50.824;16.284;2022-08-18T11:43:30;12.60;;;9.20;;
36441;SDS011;22470;50.824;16.284;2022-08-18T11:46:20;13.63;;;9.63;;
36441;SDS011;22470;50.824;16.284;2022-08-18T11:48:57;15.98;;;10.73;;
36441;SDS011;22470;50.824;16.284;2022-08-18T11:56:38;13.70;;;9.65;;
36441;SDS011;22470;50.824;16.284;2022-08-18T12:02:14;14.38;;;10.13;;
36441;SDS011;22470;50.824;16.284;2022-08-18T12:04:44;17.00;;;10.13;;
36441;SDS011;22470;50.824;16.284;2022-08-18T12:07:16;19.25;;;9.57;;
36441;SDS011;22470;50.824;16.284;2022-08-18T12:12:47;14.07;;;9.07;;
36441;SDS011;22470;50.824;16.284;2022-08-18T12:17:50;12.88;;;8.93;;
36441;SDS011;22470;50.824;16.284;2022-08-18T12:20:20;15.35;;;9.70;;
36441;SDS011;22470;50.824;16.284;2022-08-18T12:22:48;15.65;;;10.82;;
36441;SDS011;22470;50.824;16.284;2022-08-18T12:25:18;15.32;;;9.40;;
36441;SDS011;22470;50.824;16.284;2022-08-18T12:27:51;13.15;;;9.02;;
36441;SDS011;22470;50.824;16.284;2022-08-18T12:30:20;15.38;;;9.27;;
36441;SDS011;22470;50.824;16.284;2022-08-18T12:32:48;12.98;;;9.07;;
36441;SDS011;22470;50.824;16.284;2022-08-18T12:38:00;19.92;;;11.30;;
36441;SDS011;22470;50.824;16.284;2022-08-18T12:40:40;14.75;;;9.43;;
36441;SDS011;22470;50.824;16.284;2022-08-18T12:43:07;16.60;;;8.95;;
36441;SDS011;22470;50.824;16.284;2022-08-18T12:45:36;17.67;;;10.57;;
36441;SDS011;22470;50.824;16.284;2022-08-18T12:48:04;15.75;;;9.63;;
36441;SDS011;22470;50.824;16.284;2022-08-18T12:50:33;14.98;;;9.38;;
36441;SDS011;22470;50.824;16.284;2022-08-18T12:53:21;13.82;;;8.98;;
36441;SDS011;22470;50.824;16.284;2022-08-18T12:56:08;13.80;;;8.90;;
36441;SDS011;22470;50.824;16.284;2022-08-18T12:58:51;14.65;;;9.20;;
36441;SDS011;22470;50.824;16.284;2022-08-18T13:01:19;16.58;;;9.60;;
36441;SDS011;22470;50.824;16.284;2022-08-18T13:03:49;15.05;;;9.65;;
36441;SDS011;22470;50.824;16.284;2022-08-18T13:06:38;18.48;;;10.23;;
36441;SDS011;22470;50.824;16.284;2022-08-18T13:09:27;15.95;;;9.73;;
36441;SDS011;22470;50.824;16.284;2022-08-18T13:12:16;16.67;;;9.50;;
36441;SDS011;22470;50.824;16.284;2022-08-18T13:14:44;14.48;;;9.45;;
36441;SDS011;22470;50.824;16.284;2022-08-18T13:17:13;16.55;;;9.27;;
36441;SDS011;22470;50.824;16.284;2022-08-18T13:20:00;13.85;;;9.65;;
36441;SDS011;22470;50.824;16.284;2022-08-18T13:22:33;15.18;;;9.43;;
36441;SDS011;22470;50.824;16.284;2022-08-18T13:25:02;13.73;;;8.88;;
36441;SDS011;22470;50.824;16.284;2022-08-18T13:27:31;12.48;;;8.07;;
36441;SDS011;22470;50.824;16.284;2022-08-18T13:30:03;15.38;;;9.40;;
36441;SDS011;22470;50.824;16.284;2022-08-18T13:32:55;12.40;;;7.57;;
36441;SDS011;22470;50.824;16.284;2022-08-18T13:35:28;11.57;;;8.10;;
36441;SDS011;22470;50.824;16.284;2022-08-18T13:38:13;15.70;;;10.65;;
36441;SDS011;22470;50.824;16.284;2022-08-18T13:40:48;11.10;;;8.00;;
36441;SDS011;22470;50.824;16.284;2022-08-18T13:43:17;17.52;;;8.60;;
36441;SDS011;22470;50.824;16.284;2022-08-18T13:45:49;12.43;;;8.60;;
36441;SDS011;22470;50.824;16.284;2022-08-18T13:48:19;12.75;;;8.50;;
36441;SDS011;22470;50.824;16.284;2022-08-18T13:50:46;13.13;;;9.00;;
36441;SDS011;22470;50.824;16.284;2022-08-18T13:53:18;13.90;;;9.07;;
36441;SDS011;22470;50.824;16.284;2022-08-18T13:55:46;13.23;;;9.00;;
36441;SDS011;22470;50.824;16.284;2022-08-18T13:58:14;11.98;;;8.18;;
36441;SDS011;22470;50.824;16.284;2022-08-18T14:00:48;15.13;;;8.85;;
36441;SDS011;22470;50.824;16.284;2022-08-18T14:03:17;15.77;;;10.20;;
36441;SDS011;22470;50.824;16.284;2022-08-18T14:06:05;11.15;;;8.10;;
36441;SDS011;22470;50.824;16.284;2022-08-18T14:08:32;13.10;;;8.55;;
36441;SDS011;22470;50.824;16.284;2022-08-18T14:11:00;15.95;;;9.65;;
36441;SDS011;22470;50.824;16.284;2022-08-18T14:13:29;15.13;;;9.55;;
36441;SDS011;22470;50.824;16.284;2022-08-18T14:16:09;13.02;;;8.52;;
36441;SDS011;22470;50.824;16.284;2022-08-18T14:18:45;12.63;;;8.27;;
36441;SDS011;22470;50.824;16.284;2022-08-18T14:21:13;16.35;;;8.48;;
36441;SDS011;22470;50.824;16.284;2022-08-18T14:23:40;16.05;;;10.40;;
36441;SDS011;22470;50.824;16.284;2022-08-18T14:26:18;17.65;;;10.43;;
36441;SDS011;22470;50.824;16.284;2022-08-18T14:28:46;14.52;;;8.27;;
36441;SDS011;22470;50.824;16.284;2022-08-18T14:31:17;15.83;;;8.37;;
36441;SDS011;22470;50.824;16.284;2022-08-18T14:33:48;17.52;;;9.55;;
36441;SDS011;22470;50.824;16.284;2022-08-18T14:36:20;14.03;;;8.47;;
36441;SDS011;22470;50.824;16.284;2022-08-18T14:38:56;12.90;;;8.50;;
36441;SDS011;22470;50.824;16.284;2022-08-18T14:41:24;15.65;;;8.35;;
36441;SDS011;22470;50.824;16.284;2022-08-18T14:43:53;11.77;;;8.18;;
36441;SDS011;22470;50.824;16.284;2022-08-18T14:46:40;12.18;;;8.55;;
36441;SDS011;22470;50.824;16.284;2022-08-18T14:49:17;15.32;;;7.68;;
36441;SDS011;22470;50.824;16.284;2022-08-18T14:51:55;15.48;;;9.50;;
36441;SDS011;22470;50.824;16.284;2022-08-18T14:54:39;18.27;;;9.45;;
36441;SDS011;22470;50.824;16.284;2022-08-18T14:57:12;12.27;;;8.43;;
36441;SDS011;22470;50.824;16.284;2022-08-18T14:59:40;17.55;;;9.93;;
36441;SDS011;22470;50.824;16.284;2022-08-18T15:02:09;13.32;;;8.45;;
36441;SDS011;22470;50.824;16.284;2022-08-18T15:04:39;13.02;;;9.25;;
36441;SDS011;22470;50.824;16.284;2022-08-18T15:07:21;13.15;;;8.40;;
36441;SDS011;22470;50.824;16.284;2022-08-18T15:09:49;14.80;;;9.57;;
36441;SDS011;22470;50.824;16.284;2022-08-18T15:12:36;13.88;;;9.55;;
36441;SDS011;22470;50.824;16.284;2022-08-18T15:15:05;20.23;;;10.35;;
36441;SDS011;22470;50.824;16.284;2022-08-18T15:17:33;28.20;;;11.65;;
36441;SDS011;22470;50.824;16.284;2022-08-18T15:20:04;21.80;;;11.15;;
36441;SDS011;22470;50.824;16.284;2022-08-18T15:22:38;24.33;;;11.13;;
36441;SDS011;22470;50.824;16.284;2022-08-18T15:25:07;20.00;;;10.88;;
36441;SDS011;22470;50.824;16.284;2022-08-18T15:27:35;18.52;;;10.30;;
36441;SDS011;22470;50.824;16.284;2022-08-18T15:30:11;23.75;;;10.68;;
36441;SDS011;22470;50.824;16.284;2022-08-18T15:32:48;20.08;;;11.55;;
36441;SDS011;22470;50.824;16.284;2022-08-18T15:35:17;21.95;;;10.73;;
36441;SDS011;22470;50.824;16.284;2022-08-18T15:37:46;24.73;;;11.65;;
36441;SDS011;22470;50.824;16.284;2022-08-18T15:40:18;23.40;;;11.20;;
36441;SDS011;22470;50.824;16.284;2022-08-18T15:43:07;27.73;;;10.70;;
36441;SDS011;22470;50.824;16.284;2022-08-18T15:45:37;19.50;;;10.88;;
36441;SDS011;22470;50.824;16.284;2022-08-18T15:48:22;15.15;;;9.52;;
36441;SDS011;22470;50.824;16.284;2022-08-18T15:50:50;15.25;;;9.38;;
36441;SDS011;22470;50.824;16.284;2022-08-18T15:53:18;14.75;;;10.40;;
36441;SDS011;22470;50.824;16.284;2022-08-18T15:55:55;23.35;;;11.38;;
36441;SDS011;22470;50.824;16.284;2022-08-18T15:58:23;30.75;;;14.85;;
36441;SDS011;22470;50.824;16.284;2022-08-18T16:00:52;34.17;;;14.82;;
36441;SDS011;22470;50.824;16.284;2022-08-18T16:03:19;31.30;;;13.35;;
36441;SDS011;22470;50.824;16.284;2022-08-18T16:05:51;31.15;;;13.20;;
36441;SDS011;22470;50.824;16.284;2022-08-18T16:08:21;27.55;;;12.50;;
36441;SDS011;22470;50.824;16.284;2022-08-18T16:10:50;27.92;;;12.73;;
36441;SDS011;22470;50.824;16.284;2022-08-18T16:13:18;20.33;;;10.90;;
36441;SDS011;22470;50.824;16.284;2022-08-18T16:15:45;21.05;;;11.18;;
36441;SDS011;22470;50.824;16.284;2022-08-18T16:18:14;27.13;;;11.80;;
36441;SDS011;22470;50.824;16.284;2022-08-18T16:20:43;31.77;;;13.18;;
36441;SDS011;22470;50.824;16.284;2022-08-18T16:23:11;34.45;;;14.90;;
36441;SDS011;22470;50.824;16.284;2022-08-18T16:25:39;39.45;;;17.50;;
36441;SDS011;22470;50.824;16.284;2022-08-18T16:28:08;37.97;;;16.75;;
36441;SDS011;22470;50.824;16.284;2022-08-18T16:30:36;47.22;;;19.83;;
36441;SDS011;22470;50.824;16.284;2022-08-18T16:33:04;48.92;;;19.17;;
36441;SDS011;22470;50.824;16.284;2022-08-18T16:35:32;44.38;;;17.23;;
36441;SDS011;22470;50.824;16.284;2022-08-18T16:38:04;39.97;;;17.70;;
36441;SDS011;22470;50.824;16.284;2022-08-18T16:40:34;33.83;;;12.95;;
36441;SDS011;22470;50.824;16.284;2022-08-18T16:43:02;24.70;;;14.35;;
36441;SDS011;22470;50.824;16.284;2022-08-18T16:45:29;37.40;;;16.13;;
36441;SDS011;22470;50.824;16.284;2022-08-18T16:47:57;35.58;;;15.30;;
36441;SDS011;22470;50.824;16.284;2022-08-18T16:50:24;32.50;;;14.90;;
36441;SDS011;22470;50.824;16.284;2022-08-18T16:52:51;22.27;;;12.40;;
36441;SDS011;22470;50.824;16.284;2022-08-18T16:55:19;26.20;;;12.35;;
36441;SDS011;22470;50.824;16.284;2022-08-18T16:57:47;24.08;;;12.80;;
36441;SDS011;22470;50.824;16.284;2022-08-18T17:00:22;17.15;;;10.95;;
36441;SDS011;22470;50.824;16.284;2022-08-18T17:02:49;15.88;;;11.27;;
36441;SDS011;22470;50.824;16.284;2022-08-18T17:05:17;16.38;;;11.18;;
36441;SDS011;22470;50.824;16.284;2022-08-18T17:07:44;17.55;;;11.13;;
36441;SDS011;22470;50.824;16.284;2022-08-18T17:10:11;20.52;;;12.32;;
36441;SDS011;22470;50.824;16.284;2022-08-18T17:12:38;20.30;;;13.13;;
36441;SDS011;22470;50.824;16.284;2022-08-18T17:15:06;18.15;;;11.85;;
36441;SDS011;22470;50.824;16.284;2022-08-18T17:17:33;17.88;;;11.05;;
36441;SDS011;22470;50.824;16.284;2022-08-18T17:20:00;18.52;;;11.48;;
36441;SDS011;22470;50.824;16.284;2022-08-18T17:22:32;14.48;;;11.13;;